NCAR-RAP Real-Time Weather Data

Output produced by METARs form (08 May 2021  00:50 UTC)
found at http://weather.rap.ucar.edu/surface/
 
KICT 072353Z 15016G22KT 10SM FEW060 SCT250 24/10 A2989 RMK AO2 SLP115 T02390100 10261 20228 56028
KICT 072253Z 15016G24KT 10SM SCT065 SCT250 25/11 A2991 RMK AO2 SLP121 T02500106
KICT 072153Z 14017G24KT 10SM BKN065 24/10 A2994 RMK AO2 PK WND 17026/2059 SLP131 T02440100
KICT 072053Z 17018G28KT 10SM SCT065 SCT250 26/10 A2998 RMK AO2 PK WND 17029/1954 SLP143 T02610100 56027
KICT 071953Z 17017G28KT 10SM FEW075 FEW120 FEW180 25/09 A2999 RMK AO2 PK WND 17030/1904 SLP149 T02500089
KICT 071853Z 15021G28KT 10SM FEW075 FEW120 SCT180 24/08 A3003 RMK AO2 PK WND 16033/1840 SLP160 T02390078
KICT 071753Z 14017G27KT 10SM FEW075 FEW090 SCT120 SCT180 23/07 A3006 RMK AO2 PK WND 14031/1743 SLP172 SHRA MOVD E T02330067 10233 20100 58028
KICT 071653Z 15015G24KT 10SM FEW075 SCT090 SCT120 SCT180 21/04 A3011 RMK AO2 SLP190 SHRA DSNT NE-SE MOVG SE T02110044
KICT 071553Z 17013G23KT 10SM FEW075 SCT090 BKN120 BKN150 19/04 A3012 RMK AO2 SLP196 SHRA DSNT NW-NE MOVG SE T01940044
KICT 071453Z 15014KT 10SM SCT065 SCT085 BKN100 BKN140 BKN220 18/04 A3015 RMK AO2 SLP203 SHRA DSNT S-SW AND NW-N MOVG SE T01780039 58005
KICT 071353Z 18010KT 10SM FEW085 SCT100 SCT130 SCT220 14/05 A3017 RMK AO2 SLP212 ACC W-NW-N T01440050
KICT 071253Z 17009KT 10SM SCT085 SCT100 SCT130 SCT220 12/04 A3017 RMK AO2 SLP214 T01170044
KICT 071153Z 18006KT 10SM SCT075 BKN095 BKN150 BKN220 10/04 A3017 RMK AO2 RAB15E32 TSE43 SLP211 TS MOVD E AND DISPTD P0000 60000 T01000044 10122 20089 56005
KICT 071144Z 16006KT 10SM SCT075 BKN095 BKN150 BKN220 11/04 A3016 RMK AO2 RAB15E32 TSE43 TS MOVD E AND DISPTD P0000 T01060039
KICT 071053Z 18007KT 10SM TS SCT075CB BKN100 OVC120 10/02 A3017 RMK AO2 RAB31E41 TSB44 SLP212 OCNL LTGICCC VC W-NW TS VC W-NW MOV E P0000 T01000022
KICT 071045Z 19004KT 10SM TS SCT075CB BKN100 OVC120 11/02 A3017 RMK AO2 RAB31E41 TSB44 OCNL LTGICCC VC W-NW TS VC W-NW MOV E P0000 T01060022
KICT 070953Z 16004KT 10SM BKN090 BKN110 BKN250 09/02 A3017 RMK AO2 SLP214 T00940017